sensor_id;sensor_type;location;lat;lon;timestamp;temperature;humidity
15713;DHT22;7957;51.608;6.916;2022-11-09T00:00:16;12.80;99.90
15713;DHT22;7957;51.608;6.916;2022-11-09T00:02:45;12.80;99.90
15713;DHT22;7957;51.608;6.916;2022-11-09T00:05:12;12.80;99.90
15713;DHT22;7957;51.608;6.916;2022-11-09T00:07:39;12.80;99.90
15713;DHT22;7957;51.608;6.916;2022-11-09T00:10:06;12.90;99.90
15713;DHT22;7957;51.608;6.916;2022-11-09T00:12:33;12.80;99.90
15713;DHT22;7957;51.608;6.916;2022-11-09T00:15:00;12.90;99.90
15713;DHT22;7957;51.608;6.916;2022-11-09T00:17:27;12.90;99.90
15713;DHT22;7957;51.608;6.916;2022-11-09T00:19:55;12.90;99.90
15713;DHT22;7957;51.608;6.916;2022-11-09T00:22:22;12.90;99.90
15713;DHT22;7957;51.608;6.916;2022-11-09T00:24:49;12.90;99.90
15713;DHT22;7957;51.608;6.916;2022-11-09T00:27:23;12.80;99.90
15713;DHT22;7957;51.608;6.916;2022-11-09T00:29:50;12.80;99.90
15713;DHT22;7957;51.608;6.916;2022-11-09T00:32:17;12.80;99.90
15713;DHT22;7957;51.608;6.916;2022-11-09T00:34:44;12.90;99.90
15713;DHT22;7957;51.608;6.916;2022-11-09T00:37:12;12.80;99.90
15713;DHT22;7957;51.608;6.916;2022-11-09T00:39:39;12.80;99.90
15713;DHT22;7957;51.608;6.916;2022-11-09T00:42:06;12.80;99.90
15713;DHT22;7957;51.608;6.916;2022-11-09T00:44:32;12.80;99.90
15713;DHT22;7957;51.608;6.916;2022-11-09T00:46:59;12.80;99.90
15713;DHT22;7957;51.608;6.916;2022-11-09T00:49:26;12.80;99.90
15713;DHT22;7957;51.608;6.916;2022-11-09T00:51:53;12.80;99.90
15713;DHT22;7957;51.608;6.916;2022-11-09T00:54:22;12.70;99.90
15713;DHT22;7957;51.608;6.916;2022-11-09T00:56:49;12.70;99.90
15713;DHT22;7957;51.608;6.916;2022-11-09T00:59:16;12.70;99.90
15713;DHT22;7957;51.608;6.916;2022-11-09T01:01:42;12.70;99.90
15713;DHT22;7957;51.608;6.916;2022-11-09T01:04:09;12.60;99.90
15713;DHT22;7957;51.608;6.916;2022-11-09T01:06:36;12.60;99.90
15713;DHT22;7957;51.608;6.916;2022-11-09T01:09:03;12.60;99.90
15713;DHT22;7957;51.608;6.916;2022-11-09T01:11:31;12.60;99.90
15713;DHT22;7957;51.608;6.916;2022-11-09T01:13:59;12.60;99.90
15713;DHT22;7957;51.608;6.916;2022-11-09T01:16:26;12.60;99.90
15713;DHT22;7957;51.608;6.916;2022-11-09T01:18:54;12.60;99.90
15713;DHT22;7957;51.608;6.916;2022-11-09T01:21:21;12.50;99.90
15713;DHT22;7957;51.608;6.916;2022-11-09T01:23:48;12.50;99.90
15713;DHT22;7957;51.608;6.916;2022-11-09T01:26:16;12.50;99.90
15713;DHT22;7957;51.608;6.916;2022-11-09T01:28:44;12.50;99.90
15713;DHT22;7957;51.608;6.916;2022-11-09T01:31:14;12.50;99.90
15713;DHT22;7957;51.608;6.916;2022-11-09T01:33:41;12.50;99.90
15713;DHT22;7957;51.608;6.916;2022-11-09T01:36:09;12.40;99.90
15713;DHT22;7957;51.608;6.916;2022-11-09T01:38:37;12.50;99.90
15713;DHT22;7957;51.608;6.916;2022-11-09T01:41:06;12.50;99.90
15713;DHT22;7957;51.608;6.916;2022-11-09T01:43:33;12.50;99.90
15713;DHT22;7957;51.608;6.916;2022-11-09T01:46:04;12.40;99.90
15713;DHT22;7957;51.608;6.916;2022-11-09T01:48:38;12.50;99.90
15713;DHT22;7957;51.608;6.916;2022-11-09T01:51:08;12.50;99.90
15713;DHT22;7957;51.608;6.916;2022-11-09T01:53:40;12.50;99.90
15713;DHT22;7957;51.608;6.916;2022-11-09T01:56:11;12.40;99.90
15713;DHT22;7957;51.608;6.916;2022-11-09T01:58:42;12.40;99.90
15713;DHT22;7957;51.608;6.916;2022-11-09T02:01:13;12.40;99.90
15713;DHT22;7957;51.608;6.916;2022-11-09T02:03:44;12.40;99.90
15713;DHT22;7957;51.608;6.916;2022-11-09T02:06:13;12.40;99.90
15713;DHT22;7957;51.608;6.916;2022-11-09T02:08:43;12.40;99.90
15713;DHT22;7957;51.608;6.916;2022-11-09T02:11:12;12.40;99.90
15713;DHT22;7957;51.608;6.916;2022-11-09T02:13:42;12.40;99.90
15713;DHT22;7957;51.608;6.916;2022-11-09T02:16:12;12.40;99.90
15713;DHT22;7957;51.608;6.916;2022-11-09T02:18:46;12.40;99.90
15713;DHT22;7957;51.608;6.916;2022-11-09T02:21:16;12.40;99.90
15713;DHT22;7957;51.608;6.916;2022-11-09T02:23:43;12.40;99.90
15713;DHT22;7957;51.608;6.916;2022-11-09T02:26:13;12.40;99.90
15713;DHT22;7957;51.608;6.916;2022-11-09T02:28:43;12.40;99.90
15713;DHT22;7957;51.608;6.916;2022-11-09T02:31:13;12.40;99.90
15713;DHT22;7957;51.608;6.916;2022-11-09T02:33:43;12.40;99.90
15713;DHT22;7957;51.608;6.916;2022-11-09T02:36:10;12.40;99.90
15713;DHT22;7957;51.608;6.916;2022-11-09T02:38:38;12.40;99.90
15713;DHT22;7957;51.608;6.916;2022-11-09T02:41:05;12.40;99.90
15713;DHT22;7957;51.608;6.916;2022-11-09T02:43:34;12.40;99.90
15713;DHT22;7957;51.608;6.916;2022-11-09T02:46:01;12.30;99.90
15713;DHT22;7957;51.608;6.916;2022-11-09T02:48:28;12.30;99.90
15713;DHT22;7957;51.608;6.916;2022-11-09T02:50:55;12.30;99.90
15713;DHT22;7957;51.608;6.916;2022-11-09T02:53:21;12.30;99.90
15713;DHT22;7957;51.608;6.916;2022-11-09T02:55:50;12.30;99.90
15713;DHT22;7957;51.608;6.916;2022-11-09T02:58:16;12.30;99.90
15713;DHT22;7957;51.608;6.916;2022-11-09T03:00:43;12.30;99.90
15713;DHT22;7957;51.608;6.916;2022-11-09T03:03:10;12.30;99.90
15713;DHT22;7957;51.608;6.916;2022-11-09T03:05:37;12.30;99.90
15713;DHT22;7957;51.608;6.916;2022-11-09T03:08:04;12.30;99.90
15713;DHT22;7957;51.608;6.916;2022-11-09T03:10:31;12.30;99.90
15713;DHT22;7957;51.608;6.916;2022-11-09T03:12:59;12.20;99.90
15713;DHT22;7957;51.608;6.916;2022-11-09T03:15:26;12.30;99.90
15713;DHT22;7957;51.608;6.916;2022-11-09T03:17:53;12.20;99.90
15713;DHT22;7957;51.608;6.916;2022-11-09T03:20:20;12.20;99.90
15713;DHT22;7957;51.608;6.916;2022-11-09T03:22:47;12.20;99.90
15713;DHT22;7957;51.608;6.916;2022-11-09T03:25:14;12.20;99.90
15713;DHT22;7957;51.608;6.916;2022-11-09T03:27:41;12.20;99.90
15713;DHT22;7957;51.608;6.916;2022-11-09T03:30:10;12.20;99.90
15713;DHT22;7957;51.608;6.916;2022-11-09T03:32:37;12.20;99.90
15713;DHT22;7957;51.608;6.916;2022-11-09T03:35:05;12.30;99.90
15713;DHT22;7957;51.608;6.916;2022-11-09T03:37:32;12.30;99.90
15713;DHT22;7957;51.608;6.916;2022-11-09T03:39:59;12.20;99.90
15713;DHT22;7957;51.608;6.916;2022-11-09T03:42:25;12.20;99.90
15713;DHT22;7957;51.608;6.916;2022-11-09T03:44:52;12.20;99.90
15713;DHT22;7957;51.608;6.916;2022-11-09T03:47:21;12.20;99.90
15713;DHT22;7957;51.608;6.916;2022-11-09T03:49:48;12.20;99.90
15713;DHT22;7957;51.608;6.916;2022-11-09T03:52:14;12.20;99.90
15713;DHT22;7957;51.608;6.916;2022-11-09T03:54:41;12.20;99.90
15713;DHT22;7957;51.608;6.916;2022-11-09T03:57:08;12.20;99.90
15713;DHT22;7957;51.608;6.916;2022-11-09T03:59:35;12.20;99.90
15713;DHT22;7957;51.608;6.916;2022-11-09T04:02:02;12.20;99.90
15713;DHT22;7957;51.608;6.916;2022-11-09T04:04:30;12.20;99.90
15713;DHT22;7957;51.608;6.916;2022-11-09T04:06:57;12.20;99.90
15713;DHT22;7957;51.608;6.916;2022-11-09T04:09:24;12.20;99.90
15713;DHT22;7957;51.608;6.916;2022-11-09T04:11:51;12.20;99.90
15713;DHT22;7957;51.608;6.916;2022-11-09T04:14:18;12.30;99.90
15713;DHT22;7957;51.608;6.916;2022-11-09T04:16:45;12.30;99.90
15713;DHT22;7957;51.608;6.916;2022-11-09T04:19:12;12.30;99.90
15713;DHT22;7957;51.608;6.916;2022-11-09T04:21:40;12.30;99.90
15713;DHT22;7957;51.608;6.916;2022-11-09T04:24:08;12.30;99.90
15713;DHT22;7957;51.608;6.916;2022-11-09T04:26:34;12.30;99.90
15713;DHT22;7957;51.608;6.916;2022-11-09T04:29:02;12.40;99.90
15713;DHT22;7957;51.608;6.916;2022-11-09T04:31:29;12.40;99.90
15713;DHT22;7957;51.608;6.916;2022-11-09T04:33:56;12.40;99.90
15713;DHT22;7957;51.608;6.916;2022-11-09T04:36:23;12.40;99.90
15713;DHT22;7957;51.608;6.916;2022-11-09T04:38:51;12.40;99.90
15713;DHT22;7957;51.608;6.916;2022-11-09T04:41:18;12.50;99.90
15713;DHT22;7957;51.608;6.916;2022-11-09T04:43:45;12.50;99.90
15713;DHT22;7957;51.608;6.916;2022-11-09T04:46:12;12.50;99.90
15713;DHT22;7957;51.608;6.916;2022-11-09T04:48:39;12.50;99.90
15713;DHT22;7957;51.608;6.916;2022-11-09T04:51:07;12.50;99.90
15713;DHT22;7957;51.608;6.916;2022-11-09T04:53:36;12.50;99.90
15713;DHT22;7957;51.608;6.916;2022-11-09T04:56:06;12.50;99.90
15713;DHT22;7957;51.608;6.916;2022-11-09T04:58:33;12.60;99.90
15713;DHT22;7957;51.608;6.916;2022-11-09T05:01:01;12.50;99.90
15713;DHT22;7957;51.608;6.916;2022-11-09T05:03:28;12.50;99.90
15713;DHT22;7957;51.608;6.916;2022-11-09T05:05:55;12.50;99.90
15713;DHT22;7957;51.608;6.916;2022-11-09T05:08:22;12.50;99.90
15713;DHT22;7957;51.608;6.916;2022-11-09T05:10:49;12.60;99.90
15713;DHT22;7957;51.608;6.916;2022-11-09T05:13:17;12.60;99.90
15713;DHT22;7957;51.608;6.916;2022-11-09T05:15:44;12.50;99.90
15713;DHT22;7957;51.608;6.916;2022-11-09T05:18:11;12.50;99.90
15713;DHT22;7957;51.608;6.916;2022-11-09T05:20:38;12.50;99.90
15713;DHT22;7957;51.608;6.916;2022-11-09T05:23:05;12.50;99.90
15713;DHT22;7957;51.608;6.916;2022-11-09T05:25:49;12.50;99.90
15713;DHT22;7957;51.608;6.916;2022-11-09T05:28:17;12.50;99.90
15713;DHT22;7957;51.608;6.916;2022-11-09T05:30:44;12.40;99.90
15713;DHT22;7957;51.608;6.916;2022-11-09T05:33:11;12.40;99.90
15713;DHT22;7957;51.608;6.916;2022-11-09T05:35:39;12.40;99.90
15713;DHT22;7957;51.608;6.916;2022-11-09T05:38:06;12.40;99.90
15713;DHT22;7957;51.608;6.916;2022-11-09T05:40:33;12.40;99.90
15713;DHT22;7957;51.608;6.916;2022-11-09T05:43:00;12.40;99.90
15713;DHT22;7957;51.608;6.916;2022-11-09T05:45:28;12.40;99.90
15713;DHT22;7957;51.608;6.916;2022-11-09T05:47:55;12.30;99.90
15713;DHT22;7957;51.608;6.916;2022-11-09T05:50:22;12.40;99.90
15713;DHT22;7957;51.608;6.916;2022-11-09T05:52:49;12.30;99.90
15713;DHT22;7957;51.608;6.916;2022-11-09T05:55:17;12.40;99.90
15713;DHT22;7957;51.608;6.916;2022-11-09T05:57:44;12.30;99.90
15713;DHT22;7957;51.608;6.916;2022-11-09T06:00:12;12.30;99.90
15713;DHT22;7957;51.608;6.916;2022-11-09T06:02:41;12.30;99.90
15713;DHT22;7957;51.608;6.916;2022-11-09T06:05:08;12.30;99.90
15713;DHT22;7957;51.608;6.916;2022-11-09T06:07:35;12.30;99.90
15713;DHT22;7957;51.608;6.916;2022-11-09T06:10:02;12.30;99.90
15713;DHT22;7957;51.608;6.916;2022-11-09T06:12:29;12.30;99.90
15713;DHT22;7957;51.608;6.916;2022-11-09T06:14:56;12.30;99.90
15713;DHT22;7957;51.608;6.916;2022-11-09T06:17:23;12.30;99.90
15713;DHT22;7957;51.608;6.916;2022-11-09T06:19:51;12.30;99.90
15713;DHT22;7957;51.608;6.916;2022-11-09T06:22:18;12.20;99.90
15713;DHT22;7957;51.608;6.916;2022-11-09T06:24:45;12.20;99.90
15713;DHT22;7957;51.608;6.916;2022-11-09T06:27:12;12.20;99.90
15713;DHT22;7957;51.608;6.916;2022-11-09T06:29:38;12.20;99.90
15713;DHT22;7957;51.608;6.916;2022-11-09T06:32:05;12.10;99.90
15713;DHT22;7957;51.608;6.916;2022-11-09T06:34:32;12.10;99.90
15713;DHT22;7957;51.608;6.916;2022-11-09T06:37:00;12.00;99.90
15713;DHT22;7957;51.608;6.916;2022-11-09T06:39:27;12.00;99.90
15713;DHT22;7957;51.608;6.916;2022-11-09T06:41:54;12.00;99.90
15713;DHT22;7957;51.608;6.916;2022-11-09T06:44:21;12.00;99.90
15713;DHT22;7957;51.608;6.916;2022-11-09T06:46:48;11.90;99.90
15713;DHT22;7957;51.608;6.916;2022-11-09T06:49:15;11.90;99.90
15713;DHT22;7957;51.608;6.916;2022-11-09T06:51:42;11.90;99.90
15713;DHT22;7957;51.608;6.916;2022-11-09T06:54:10;11.90;99.90
15713;DHT22;7957;51.608;6.916;2022-11-09T06:56:37;11.90;99.90
15713;DHT22;7957;51.608;6.916;2022-11-09T06:59:04;11.90;99.90
15713;DHT22;7957;51.608;6.916;2022-11-09T07:01:30;11.90;99.90
15713;DHT22;7957;51.608;6.916;2022-11-09T07:03:57;11.80;99.90
15713;DHT22;7957;51.608;6.916;2022-11-09T07:06:24;11.80;99.90
15713;DHT22;7957;51.608;6.916;2022-11-09T07:08:54;11.80;99.90
15713;DHT22;7957;51.608;6.916;2022-11-09T07:11:25;11.80;99.90
15713;DHT22;7957;51.608;6.916;2022-11-09T07:13:52;11.80;99.90
15713;DHT22;7957;51.608;6.916;2022-11-09T07:16:19;11.80;99.90
15713;DHT22;7957;51.608;6.916;2022-11-09T07:18:46;11.80;99.90
15713;DHT22;7957;51.608;6.916;2022-11-09T07:21:13;11.80;99.90
15713;DHT22;7957;51.608;6.916;2022-11-09T07:23:40;11.80;99.90
15713;DHT22;7957;51.608;6.916;2022-11-09T07:26:08;11.80;99.90
15713;DHT22;7957;51.608;6.916;2022-11-09T07:28:36;11.80;99.90
15713;DHT22;7957;51.608;6.916;2022-11-09T07:31:03;11.70;99.90
15713;DHT22;7957;51.608;6.916;2022-11-09T07:33:30;11.80;99.90
15713;DHT22;7957;51.608;6.916;2022-11-09T07:35:58;11.80;99.90
15713;DHT22;7957;51.608;6.916;2022-11-09T07:38:25;11.80;99.90
15713;DHT22;7957;51.608;6.916;2022-11-09T07:40:52;11.80;99.90
15713;DHT22;7957;51.608;6.916;2022-11-09T07:43:19;11.80;99.90
15713;DHT22;7957;51.608;6.916;2022-11-09T07:45:47;11.80;99.90
15713;DHT22;7957;51.608;6.916;2022-11-09T07:48:14;11.70;99.90
15713;DHT22;7957;51.608;6.916;2022-11-09T07:50:41;11.80;99.90
15713;DHT22;7957;51.608;6.916;2022-11-09T07:53:11;11.80;99.90
15713;DHT22;7957;51.608;6.916;2022-11-09T07:55:39;11.80;99.90
15713;DHT22;7957;51.608;6.916;2022-11-09T07:58:08;11.70;99.90
15713;DHT22;7957;51.608;6.916;2022-11-09T08:00:38;11.80;99.90
15713;DHT22;7957;51.608;6.916;2022-11-09T08:03:07;11.80;99.90
15713;DHT22;7957;51.608;6.916;2022-11-09T08:05:34;11.80;99.90
15713;DHT22;7957;51.608;6.916;2022-11-09T08:08:02;11.80;99.90
15713;DHT22;7957;51.608;6.916;2022-11-09T08:10:31;11.90;99.90
15713;DHT22;7957;51.608;6.916;2022-11-09T08:13:00;11.90;99.90
15713;DHT22;7957;51.608;6.916;2022-11-09T08:15:28;12.00;99.90
15713;DHT22;7957;51.608;6.916;2022-11-09T08:17:57;12.10;99.90
15713;DHT22;7957;51.608;6.916;2022-11-09T08:20:26;12.10;99.90
15713;DHT22;7957;51.608;6.916;2022-11-09T08:22:53;12.10;99.90
15713;DHT22;7957;51.608;6.916;2022-11-09T08:25:19;12.10;99.90
15713;DHT22;7957;51.608;6.916;2022-11-09T08:27:46;12.20;99.90
15713;DHT22;7957;51.608;6.916;2022-11-09T08:30:16;12.20;99.90
15713;DHT22;7957;51.608;6.916;2022-11-09T08:32:44;12.30;99.90
15713;DHT22;7957;51.608;6.916;2022-11-09T08:35:12;12.40;99.90
15713;DHT22;7957;51.608;6.916;2022-11-09T08:37:45;12.50;99.90
15713;DHT22;7957;51.608;6.916;2022-11-09T08:40:13;12.60;99.90
15713;DHT22;7957;51.608;6.916;2022-11-09T08:42:40;12.70;99.90
15713;DHT22;7957;51.608;6.916;2022-11-09T08:45:08;12.70;99.90
15713;DHT22;7957;51.608;6.916;2022-11-09T08:47:36;12.70;99.90
15713;DHT22;7957;51.608;6.916;2022-11-09T08:50:04;12.70;99.90
15713;DHT22;7957;51.608;6.916;2022-11-09T08:52:31;12.60;99.90
15713;DHT22;7957;51.608;6.916;2022-11-09T08:55:00;12.60;99.90
15713;DHT22;7957;51.608;6.916;2022-11-09T08:57:27;12.60;99.90
15713;DHT22;7957;51.608;6.916;2022-11-09T08:59:54;12.60;99.90
15713;DHT22;7957;51.608;6.916;2022-11-09T09:02:21;12.60;99.90
15713;DHT22;7957;51.608;6.916;2022-11-09T09:04:48;12.60;99.90
15713;DHT22;7957;51.608;6.916;2022-11-09T09:07:15;12.60;99.90
15713;DHT22;7957;51.608;6.916;2022-11-09T09:09:42;12.60;99.90
15713;DHT22;7957;51.608;6.916;2022-11-09T09:12:11;12.60;99.90
15713;DHT22;7957;51.608;6.916;2022-11-09T09:14:37;12.60;99.90
15713;DHT22;7957;51.608;6.916;2022-11-09T09:17:04;12.60;99.90
15713;DHT22;7957;51.608;6.916;2022-11-09T09:19:31;12.60;99.90
15713;DHT22;7957;51.608;6.916;2022-11-09T09:21:59;12.60;99.90
15713;DHT22;7957;51.608;6.916;2022-11-09T09:24:26;12.60;99.90
15713;DHT22;7957;51.608;6.916;2022-11-09T09:26:53;12.60;99.90
15713;DHT22;7957;51.608;6.916;2022-11-09T09:29:21;12.60;99.90
15713;DHT22;7957;51.608;6.916;2022-11-09T09:31:48;12.70;99.90
15713;DHT22;7957;51.608;6.916;2022-11-09T09:34:16;12.70;99.90
15713;DHT22;7957;51.608;6.916;2022-11-09T09:36:43;12.70;99.90
15713;DHT22;7957;51.608;6.916;2022-11-09T09:39:09;12.80;99.90
15713;DHT22;7957;51.608;6.916;2022-11-09T09:41:44;12.80;99.90
15713;DHT22;7957;51.608;6.916;2022-11-09T09:44:21;12.80;99.90
15713;DHT22;7957;51.608;6.916;2022-11-09T09:46:54;12.80;99.90
15713;DHT22;7957;51.608;6.916;2022-11-09T09:49:25;12.90;99.90
15713;DHT22;7957;51.608;6.916;2022-11-09T09:51:55;12.90;99.90
15713;DHT22;7957;51.608;6.916;2022-11-09T09:54:27;12.90;99.90
15713;DHT22;7957;51.608;6.916;2022-11-09T09:56:58;12.90;99.90
15713;DHT22;7957;51.608;6.916;2022-11-09T09:59:33;12.90;99.90
15713;DHT22;7957;51.608;6.916;2022-11-09T10:02:01;12.90;99.90
15713;DHT22;7957;51.608;6.916;2022-11-09T10:04:33;13.00;99.90
15713;DHT22;7957;51.608;6.916;2022-11-09T10:07:06;13.00;99.90
15713;DHT22;7957;51.608;6.916;2022-11-09T10:10:02;13.00;99.90
15713;DHT22;7957;51.608;6.916;2022-11-09T10:12:40;13.10;99.90
15713;DHT22;7957;51.608;6.916;2022-11-09T10:15:21;13.10;99.90
15713;DHT22;7957;51.608;6.916;2022-11-09T10:18:01;13.10;99.90
15713;DHT22;7957;51.608;6.916;2022-11-09T10:20:40;13.10;99.90
15713;DHT22;7957;51.608;6.916;2022-11-09T10:23:24;13.20;99.90
15713;DHT22;7957;51.608;6.916;2022-11-09T10:26:01;13.10;99.90
15713;DHT22;7957;51.608;6.916;2022-11-09T10:28:28;13.20;99.90
15713;DHT22;7957;51.608;6.916;2022-11-09T10:30:57;13.20;99.90
15713;DHT22;7957;51.608;6.916;2022-11-09T10:33:27;13.20;99.90
15713;DHT22;7957;51.608;6.916;2022-11-09T10:35:59;13.20;99.90
15713;DHT22;7957;51.608;6.916;2022-11-09T10:38:29;13.20;99.90
15713;DHT22;7957;51.608;6.916;2022-11-09T10:41:00;13.20;99.90
15713;DHT22;7957;51.608;6.916;2022-11-09T10:43:28;13.20;99.90
15713;DHT22;7957;51.608;6.916;2022-11-09T10:46:01;13.20;99.90
15713;DHT22;7957;51.608;6.916;2022-11-09T10:48:32;13.30;99.90
15713;DHT22;7957;51.608;6.916;2022-11-09T10:51:30;13.30;99.90
15713;DHT22;7957;51.608;6.916;2022-11-09T10:54:14;13.30;99.90
15713;DHT22;7957;51.608;6.916;2022-11-09T10:56:44;13.40;99.90
15713;DHT22;7957;51.608;6.916;2022-11-09T10:59:34;13.40;99.90
15713;DHT22;7957;51.608;6.916;2022-11-09T11:02:40;13.40;99.90
15713;DHT22;7957;51.608;6.916;2022-11-09T11:05:24;13.40;99.90
15713;DHT22;7957;51.608;6.916;2022-11-09T11:07:51;13.40;99.90
15713;DHT22;7957;51.608;6.916;2022-11-09T11:10:19;13.40;99.90
15713;DHT22;7957;51.608;6.916;2022-11-09T11:12:56;13.40;99.90
15713;DHT22;7957;51.608;6.916;2022-11-09T11:15:28;13.40;99.90
15713;DHT22;7957;51.608;6.916;2022-11-09T11:18:02;13.40;99.90
15713;DHT22;7957;51.608;6.916;2022-11-09T11:20:31;13.50;99.90
15713;DHT22;7957;51.608;6.916;2022-11-09T11:23:10;13.50;99.90
15713;DHT22;7957;51.608;6.916;2022-11-09T11:25:54;13.50;99.90
15713;DHT22;7957;51.608;6.916;2022-11-09T11:28:28;13.50;1.00
15713;DHT22;7957;51.608;6.916;2022-11-09T11:30:56;13.50;1.00
15713;DHT22;7957;51.608;6.916;2022-11-09T11:33:24;13.50;99.90
15713;DHT22;7957;51.608;6.916;2022-11-09T11:35:55;13.50;99.90
15713;DHT22;7957;51.608;6.916;2022-11-09T11:38:27;13.50;1.00
15713;DHT22;7957;51.608;6.916;2022-11-09T11:41:01;13.50;1.00
15713;DHT22;7957;51.608;6.916;2022-11-09T11:43:38;13.50;1.00
15713;DHT22;7957;51.608;6.916;2022-11-09T11:46:15;13.50;99.90
15713;DHT22;7957;51.608;6.916;2022-11-09T11:49:18;13.50;99.90
15713;DHT22;7957;51.608;6.916;2022-11-09T11:51:54;13.50;99.90
15713;DHT22;7957;51.608;6.916;2022-11-09T11:54:28;13.50;99.90
15713;DHT22;7957;51.608;6.916;2022-11-09T11:57:05;13.40;40.40
15713;DHT22;7957;51.608;6.916;2022-11-09T11:59:46;13.40;1.00
15713;DHT22;7957;51.608;6.916;2022-11-09T12:02:43;13.40;1.00
15713;DHT22;7957;51.608;6.916;2022-11-09T12:05:36;13.40;1.00
15713;DHT22;7957;51.608;6.916;2022-11-09T12:08:13;13.40;1.00
15713;DHT22;7957;51.608;6.916;2022-11-09T12:10:48;13.50;99.90
15713;DHT22;7957;51.608;6.916;2022-11-09T12:13:35;13.50;99.90
15713;DHT22;7957;51.608;6.916;2022-11-09T12:16:08;13.50;99.90
15713;DHT22;7957;51.608;6.916;2022-11-09T12:18:47;13.50;99.90
15713;DHT22;7957;51.608;6.916;2022-11-09T12:21:19;13.50;99.90
15713;DHT22;7957;51.608;6.916;2022-11-09T12:24:01;13.50;75.80
15713;DHT22;7957;51.608;6.916;2022-11-09T12:26:43;13.50;50.90
15713;DHT22;7957;51.608;6.916;2022-11-09T12:29:18;13.60;25.70
15713;DHT22;7957;51.608;6.916;2022-11-09T12:31:54;13.60;1.00
15713;DHT22;7957;51.608;6.916;2022-11-09T12:34:29;13.60;1.00
15713;DHT22;7957;51.608;6.916;2022-11-09T12:37:01;13.60;1.00
15713;DHT22;7957;51.608;6.916;2022-11-09T12:39:34;13.60;1.00
15713;DHT22;7957;51.608;6.916;2022-11-09T12:42:04;13.60;1.00
15713;DHT22;7957;51.608;6.916;2022-11-09T12:44:35;13.60;1.00
15713;DHT22;7957;51.608;6.916;2022-11-09T12:47:08;13.60;1.00
15713;DHT22;7957;51.608;6.916;2022-11-09T12:49:38;13.70;99.90
15713;DHT22;7957;51.608;6.916;2022-11-09T12:52:09;13.70;99.90
15713;DHT22;7957;51.608;6.916;2022-11-09T12:54:40;13.70;99.90
15713;DHT22;7957;51.608;6.916;2022-11-09T12:57:10;13.70;99.90
15713;DHT22;7957;51.608;6.916;2022-11-09T12:59:45;13.70;99.90
15713;DHT22;7957;51.608;6.916;2022-11-09T13:02:24;13.70;99.90
15713;DHT22;7957;51.608;6.916;2022-11-09T13:04:57;13.60;99.90
15713;DHT22;7957;51.608;6.916;2022-11-09T13:07:47;13.60;99.90
15713;DHT22;7957;51.608;6.916;2022-11-09T13:10:24;13.60;99.90
15713;DHT22;7957;51.608;6.916;2022-11-09T13:13:01;13.60;99.90
15713;DHT22;7957;51.608;6.916;2022-11-09T13:15:30;13.60;99.90
15713;DHT22;7957;51.608;6.916;2022-11-09T13:18:02;13.60;99.90
15713;DHT22;7957;51.608;6.916;2022-11-09T13:20:53;13.60;97.30
15713;DHT22;7957;51.608;6.916;2022-11-09T13:23:33;13.60;43.40
15713;DHT22;7957;51.608;6.916;2022-11-09T13:26:03;13.60;8.30
15713;DHT22;7957;51.608;6.916;2022-11-09T13:28:45;13.60;10.30
15713;DHT22;7957;51.608;6.916;2022-11-09T13:32:03;13.60;1.00
15713;DHT22;7957;51.608;6.916;2022-11-09T13:34:55;13.50;1.00
15713;DHT22;7957;51.608;6.916;2022-11-09T13:37:45;13.60;1.00
15713;DHT22;7957;51.608;6.916;2022-11-09T13:40:41;13.50;1.00
15713;DHT22;7957;51.608;6.916;2022-11-09T13:43:21;13.50;1.00
15713;DHT22;7957;51.608;6.916;2022-11-09T13:45:52;13.50;1.00
15713;DHT22;7957;51.608;6.916;2022-11-09T13:48:31;13.50;1.00
15713;DHT22;7957;51.608;6.916;2022-11-09T13:51:02;13.50;1.00
15713;DHT22;7957;51.608;6.916;2022-11-09T13:53:30;13.40;1.00
15713;DHT22;7957;51.608;6.916;2022-11-09T13:56:21;13.40;1.00
15713;DHT22;7957;51.608;6.916;2022-11-09T13:58:49;13.40;1.00
15713;DHT22;7957;51.608;6.916;2022-11-09T14:01:25;13.40;1.00
15713;DHT22;7957;51.608;6.916;2022-11-09T14:03:52;13.40;1.00
15713;DHT22;7957;51.608;6.916;2022-11-09T14:06:20;13.40;1.00
15713;DHT22;7957;51.608;6.916;2022-11-09T14:08:48;13.40;1.00
15713;DHT22;7957;51.608;6.916;2022-11-09T14:11:38;13.40;1.00
15713;DHT22;7957;51.608;6.916;2022-11-09T14:14:23;13.40;1.00
15713;DHT22;7957;51.608;6.916;2022-11-09T14:16:58;13.40;1.00
15713;DHT22;7957;51.608;6.916;2022-11-09T14:19:31;13.40;1.00
15713;DHT22;7957;51.608;6.916;2022-11-09T14:21:59;13.40;1.00
15713;DHT22;7957;51.608;6.916;2022-11-09T14:24:28;13.40;1.00
15713;DHT22;7957;51.608;6.916;2022-11-09T14:27:13;13.30;1.00
15713;DHT22;7957;51.608;6.916;2022-11-09T14:29:50;13.30;1.00
15713;DHT22;7957;51.608;6.916;2022-11-09T14:32:26;13.30;1.00
15713;DHT22;7957;51.608;6.916;2022-11-09T14:35:17;13.30;1.00
15713;DHT22;7957;51.608;6.916;2022-11-09T14:37:45;13.30;1.00
15713;DHT22;7957;51.608;6.916;2022-11-09T14:40:21;13.20;1.00
15713;DHT22;7957;51.608;6.916;2022-11-09T14:42:53;13.20;1.00
15713;DHT22;7957;51.608;6.916;2022-11-09T14:45:21;13.20;1.00
15713;DHT22;7957;51.608;6.916;2022-11-09T14:47:52;13.10;1.00
15713;DHT22;7957;51.608;6.916;2022-11-09T14:50:22;13.10;1.00
15713;DHT22;7957;51.608;6.916;2022-11-09T14:52:50;13.10;1.00
15713;DHT22;7957;51.608;6.916;2022-11-09T14:55:19;13.10;3.70
15713;DHT22;7957;51.608;6.916;2022-11-09T14:57:59;13.00;1.00
15713;DHT22;7957;51.608;6.916;2022-11-09T15:00:32;13.00;3.50
15713;DHT22;7957;51.608;6.916;2022-11-09T15:03:23;13.00;25.70
15713;DHT22;7957;51.608;6.916;2022-11-09T15:06:02;12.90;56.50
15713;DHT22;7957;51.608;6.916;2022-11-09T15:08:30;12.90;94.70
15713;DHT22;7957;51.608;6.916;2022-11-09T15:10:57;12.90;98.60
15713;DHT22;7957;51.608;6.916;2022-11-09T15:13:34;12.90;99.90
15713;DHT22;7957;51.608;6.916;2022-11-09T15:16:02;12.90;99.90
15713;DHT22;7957;51.608;6.916;2022-11-09T15:18:31;12.90;99.90
15713;DHT22;7957;51.608;6.916;2022-11-09T15:21:14;12.90;99.90
15713;DHT22;7957;51.608;6.916;2022-11-09T15:23:43;12.90;99.90
15713;DHT22;7957;51.608;6.916;2022-11-09T15:26:34;12.90;99.90
15713;DHT22;7957;51.608;6.916;2022-11-09T15:29:35;12.90;99.90
15713;DHT22;7957;51.608;6.916;2022-11-09T15:32:12;12.90;99.90
15713;DHT22;7957;51.608;6.916;2022-11-09T15:34:41;12.80;99.90
15713;DHT22;7957;51.608;6.916;2022-11-09T15:37:20;12.80;99.90
15713;DHT22;7957;51.608;6.916;2022-11-09T15:39:48;12.80;99.90
15713;DHT22;7957;51.608;6.916;2022-11-09T15:42:15;12.70;99.90
15713;DHT22;7957;51.608;6.916;2022-11-09T15:44:45;12.70;99.90
15713;DHT22;7957;51.608;6.916;2022-11-09T15:47:21;12.70;99.90
15713;DHT22;7957;51.608;6.916;2022-11-09T15:49:48;12.70;99.90
15713;DHT22;7957;51.608;6.916;2022-11-09T15:52:15;12.60;99.90
15713;DHT22;7957;51.608;6.916;2022-11-09T15:54:41;12.60;1.00
15713;DHT22;7957;51.608;6.916;2022-11-09T15:57:14;12.60;1.00
15713;DHT22;7957;51.608;6.916;2022-11-09T15:59:44;12.60;1.00
15713;DHT22;7957;51.608;6.916;2022-11-09T16:02:15;12.50;1.00
15713;DHT22;7957;51.608;6.916;2022-11-09T16:04:44;12.50;1.00
15713;DHT22;7957;51.608;6.916;2022-11-09T16:07:14;12.50;1.00
15713;DHT22;7957;51.608;6.916;2022-11-09T16:09:41;12.50;1.00